createdAt,value
2023-02-16T00:02:22.276Z,22.10
2023-02-16T00:05:26.965Z,20.93
2023-02-16T00:08:29.432Z,20.98
2023-02-16T00:11:53.105Z,20.77
2023-02-16T00:14:55.522Z,18.98
2023-02-16T00:18:03.045Z,19.30
2023-02-16T00:21:05.976Z,19.10
2023-02-16T00:24:08.862Z,18.83
2023-02-16T00:27:18.511Z,19.30
2023-02-16T00:30:22.701Z,19.25
2023-02-16T00:33:25.439Z,18.05
2023-02-16T00:36:28.211Z,18.10
2023-02-16T00:39:30.717Z,20.55
2023-02-16T00:42:35.753Z,20.15
2023-02-16T00:45:38.098Z,21.08
2023-02-16T00:48:40.712Z,21.45
2023-02-16T00:51:43.930Z,22.43
2023-02-16T00:54:46.901Z,21.83
2023-02-16T00:57:53.792Z,22.23
2023-02-16T01:01:08.290Z,23.83
2023-02-16T01:04:18.576Z,24.05
2023-02-16T01:07:40.589Z,24.47
2023-02-16T01:11:02.066Z,24.98
2023-02-16T01:14:06.693Z,24.92
2023-02-16T01:17:11.195Z,24.02
2023-02-16T01:20:22.463Z,27.52
2023-02-16T01:23:25.059Z,23.83
2023-02-16T01:26:29.480Z,25.33
2023-02-16T01:29:31.969Z,25.23
2023-02-16T01:32:35.708Z,26.10
2023-02-16T01:35:38.686Z,26.33
2023-02-16T01:38:41.312Z,24.57
2023-02-16T01:42:08.584Z,25.50
2023-02-16T01:45:20.590Z,26.33
2023-02-16T01:48:27.831Z,27.13
2023-02-16T01:51:59.960Z,25.52
2023-02-16T01:55:19.054Z,24.60
2023-02-16T01:58:33.033Z,23.55
2023-02-16T02:01:42.654Z,26.30
2023-02-16T02:05:26.055Z,24.55
2023-02-16T02:08:49.185Z,24.67
2023-02-16T02:11:59.774Z,24.27
2023-02-16T02:15:02.528Z,23.75
2023-02-16T02:18:05.555Z,23.83
2023-02-16T02:21:42.337Z,24.08
2023-02-16T02:25:05.816Z,24.12
2023-02-16T02:28:31.588Z,25.20
2023-02-16T02:31:43.825Z,26.23
2023-02-16T02:34:53.486Z,25.10
2023-02-16T02:38:09.893Z,24.10
2023-02-16T02:41:23.801Z,22.90
2023-02-16T02:44:28.995Z,23.90
2023-02-16T02:47:40.299Z,21.80
2023-02-16T02:51:30.918Z,23.58
2023-02-16T02:54:57.559Z,23.92
2023-02-16T02:58:18.834Z,25.62
2023-02-16T03:01:24.270Z,23.27
2023-02-16T03:04:30.777Z,26.20
2023-02-16T03:07:46.807Z,26.33
2023-02-16T03:11:16.523Z,25.58
2023-02-16T03:14:37.933Z,26.55
2023-02-16T03:17:59.858Z,24.90
2023-02-16T03:21:22.926Z,24.02
2023-02-16T03:24:48.876Z,26.42
2023-02-16T03:28:11.269Z,23.70
2023-02-16T03:31:21.623Z,25.02
2023-02-16T03:34:25.684Z,23.60
2023-02-16T03:37:28.142Z,23.77
2023-02-16T03:40:35.046Z,23.77
2023-02-16T03:43:37.715Z,22.13
2023-02-16T03:46:40.789Z,22.48
2023-02-16T03:49:43.290Z,22.27
2023-02-16T03:52:46.225Z,22.30
2023-02-16T03:55:48.801Z,21.65
2023-02-16T03:58:51.560Z,20.65
2023-02-16T04:01:54.069Z,21.58
2023-02-16T04:04:57.112Z,19.50
2023-02-16T04:07:59.684Z,21.60
2023-02-16T04:11:22.354Z,20.42
2023-02-16T04:14:24.803Z,21.17
2023-02-16T04:17:27.598Z,19.90
2023-02-16T04:20:31.950Z,19.83
2023-02-16T04:23:34.803Z,21.02
2023-02-16T04:26:37.425Z,22.58
2023-02-16T04:29:40.372Z,22.85
2023-02-16T04:32:42.958Z,23.17
2023-02-16T04:35:45.670Z,21.87
2023-02-16T04:38:48.017Z,22.60
2023-02-16T04:41:50.766Z,22.77
2023-02-16T04:44:53.470Z,22.95
2023-02-16T04:47:56.378Z,24.75
2023-02-16T04:50:58.794Z,23.57
2023-02-16T04:54:01.497Z,25.95
2023-02-16T04:57:04.022Z,26.02
2023-02-16T05:00:08.740Z,24.87
2023-02-16T05:03:11.214Z,23.95
2023-02-16T05:06:14.440Z,23.23
2023-02-16T05:09:16.996Z,25.80
2023-02-16T05:12:38.403Z,22.70
2023-02-16T05:15:40.917Z,20.77
2023-02-16T05:18:43.800Z,23.20
2023-02-16T05:21:46.320Z,23.20
2023-02-16T05:24:49.422Z,22.90
2023-02-16T05:27:52.017Z,23.15
2023-02-16T05:30:54.974Z,22.70
2023-02-16T05:33:57.374Z,24.73
2023-02-16T05:37:00.156Z,23.77
2023-02-16T05:40:02.831Z,25.05
2023-02-16T05:43:05.486Z,25.12
2023-02-16T05:46:09.138Z,25.75
2023-02-16T05:49:13.942Z,25.50
2023-02-16T05:52:16.899Z,25.70
2023-02-16T05:55:19.881Z,24.67
2023-02-16T05:58:23.196Z,26.60
2023-02-16T06:01:26.954Z,24.98
2023-02-16T06:04:29.691Z,23.90
2023-02-16T06:07:32.300Z,23.90
2023-02-16T06:10:35.198Z,23.67
2023-02-16T06:13:37.647Z,23.65
2023-02-16T06:16:42.364Z,23.52
2023-02-16T06:19:44.810Z,21.85
2023-02-16T06:22:47.763Z,22.53
2023-02-16T06:25:51.884Z,24.73
2023-02-16T06:28:55.552Z,25.55
2023-02-16T06:31:58.378Z,29.80
2023-02-16T06:35:01.213Z,31.67
2023-02-16T06:38:03.770Z,31.27
2023-02-16T06:41:07.395Z,29.40
2023-02-16T06:44:16.636Z,29.63
2023-02-16T06:47:19.767Z,29.48
2023-02-16T06:50:22.756Z,30.37
2023-02-16T06:53:25.766Z,29.03
2023-02-16T06:56:28.870Z,28.98
2023-02-16T06:59:31.573Z,29.05
2023-02-16T07:02:35.735Z,28.17
2023-02-16T07:05:38.702Z,28.65
2023-02-16T07:08:41.230Z,26.13
2023-02-16T07:11:44.019Z,25.05
2023-02-16T07:14:46.597Z,27.42
2023-02-16T07:17:49.471Z,27.40
2023-02-16T07:20:52.238Z,26.55
2023-02-16T07:23:55.048Z,25.60
2023-02-16T07:26:57.424Z,25.58
2023-02-16T07:30:00.377Z,28.10
2023-02-16T07:33:03.085Z,27.65
2023-02-16T07:36:07.233Z,27.50
2023-02-16T07:39:09.734Z,27.90
2023-02-16T07:42:12.530Z,29.40
2023-02-16T07:45:18.997Z,29.00
2023-02-16T07:48:21.739Z,28.92
2023-02-16T07:51:26.580Z,29.85
2023-02-16T07:54:31.898Z,30.30
2023-02-16T07:57:34.487Z,29.83
2023-02-16T08:00:37.501Z,28.73
2023-02-16T08:03:42.666Z,29.58
2023-02-16T08:06:47.140Z,29.05
2023-02-16T08:09:50.058Z,27.93
2023-02-16T08:12:52.539Z,29.12
2023-02-16T08:15:55.361Z,27.95
2023-02-16T08:19:00.083Z,28.02
2023-02-16T08:22:04.702Z,28.40
2023-02-16T08:25:07.959Z,27.57
2023-02-16T08:28:15.103Z,28.75
2023-02-16T08:31:20.497Z,28.52
2023-02-16T08:34:26.320Z,28.62
2023-02-16T08:37:28.857Z,27.58
2023-02-16T08:40:32.593Z,27.57
2023-02-16T08:43:35.978Z,28.62
2023-02-16T08:46:42.777Z,33.17
2023-02-16T08:49:45.885Z,36.92
2023-02-16T08:52:49.017Z,37.03
2023-02-16T08:55:55.723Z,34.37
2023-02-16T08:59:02.291Z,34.65
2023-02-16T09:02:06.360Z,38.45
2023-02-16T09:05:10.234Z,36.58
2023-02-16T09:08:13.018Z,38.35
2023-02-16T09:11:16.493Z,37.77
2023-02-16T09:14:19.398Z,38.08
2023-02-16T09:17:22.498Z,38.58
2023-02-16T09:20:25.207Z,37.67
2023-02-16T09:23:29.035Z,37.58
2023-02-16T09:26:34.440Z,36.77
2023-02-16T09:29:38.864Z,38.53
2023-02-16T09:32:42.661Z,39.17
2023-02-16T09:35:46.135Z,39.03
2023-02-16T09:38:49.189Z,36.75
2023-02-16T09:42:17.107Z,36.70
2023-02-16T09:45:22.764Z,38.15
2023-02-16T09:48:44.918Z,37.50
2023-02-16T09:51:52.535Z,36.25
2023-02-16T09:55:05.677Z,38.17
2023-02-16T09:58:21.870Z,36.20
2023-02-16T10:01:31.996Z,36.13
2023-02-16T10:04:47.986Z,36.50
2023-02-16T10:08:27.937Z,37.08
2023-02-16T10:11:42.126Z,31.48
2023-02-16T10:14:49.929Z,29.13
2023-02-16T10:18:02.577Z,29.85
2023-02-16T10:21:15.228Z,33.10
2023-02-16T10:24:18.498Z,29.80
2023-02-16T10:27:21.973Z,28.75
2023-02-16T10:30:25.051Z,29.27
2023-02-16T10:33:53.701Z,29.15
2023-02-16T10:37:14.844Z,29.63
2023-02-16T10:40:23.633Z,31.85
2023-02-16T10:43:35.600Z,32.33
2023-02-16T10:46:48.030Z,30.67
2023-02-16T10:49:52.283Z,31.85
2023-02-16T10:53:00.627Z,32.55
2023-02-16T10:56:34.322Z,34.13
2023-02-16T10:59:42.815Z,33.65
2023-02-16T11:02:48.444Z,32.50
2023-02-16T11:05:53.389Z,32.05
2023-02-16T11:09:00.427Z,29.95
2023-02-16T11:12:28.492Z,29.10
2023-02-16T11:15:40.095Z,29.60
2023-02-16T11:18:49.911Z,29.00
2023-02-16T11:22:02.503Z,28.77
2023-02-16T11:25:34.205Z,27.58
2023-02-16T11:28:42.973Z,29.02
2023-02-16T11:31:45.800Z,28.27
2023-02-16T11:34:53.775Z,28.03
2023-02-16T11:37:56.418Z,27.17
2023-02-16T11:41:02.503Z,28.27
2023-02-16T11:44:05.532Z,27.75
2023-02-16T11:47:25.573Z,28.02
2023-02-16T11:50:32.874Z,27.57
2023-02-16T11:53:42.629Z,26.83
2023-02-16T11:57:02.058Z,27.67
2023-02-16T12:00:16.564Z,26.12
2023-02-16T12:04:00.663Z,27.60
2023-02-16T12:07:23.358Z,27.70
2023-02-16T12:10:34.877Z,27.87
2023-02-16T12:13:55.319Z,29.12
2023-02-16T12:17:24.045Z,29.27
2023-02-16T12:20:54.316Z,25.67
2023-02-16T12:24:32.500Z,26.90
2023-02-16T12:27:47.959Z,30.30
2023-02-16T12:31:23.386Z,28.45
2023-02-16T12:34:45.272Z,27.35
2023-02-16T12:38:01.758Z,27.80
2023-02-16T12:41:16.598Z,27.67
2023-02-16T12:44:36.759Z,27.10
2023-02-16T12:47:46.709Z,27.45
2023-02-16T12:50:51.805Z,28.00
2023-02-16T12:54:10.080Z,26.40
2023-02-16T12:57:20.679Z,27.03
2023-02-16T13:00:35.209Z,28.85
2023-02-16T13:04:05.031Z,26.90
2023-02-16T13:07:17.969Z,25.45
2023-02-16T13:10:54.934Z,24.23
2023-02-16T13:14:02.974Z,24.83
2023-02-16T13:17:18.788Z,23.85
2023-02-16T13:20:23.158Z,23.92
2023-02-16T13:23:35.043Z,24.42
2023-02-16T13:26:55.076Z,24.27
2023-02-16T13:30:17.060Z,23.13
2023-02-16T13:33:55.533Z,24.70
2023-02-16T13:37:18.408Z,25.17
2023-02-16T13:40:48.846Z,24.50
2023-02-16T13:43:57.101Z,21.92
2023-02-16T13:46:59.830Z,23.33
2023-02-16T13:50:09.583Z,22.58
2023-02-16T13:53:19.616Z,22.62
2023-02-16T13:56:38.208Z,22.95
2023-02-16T13:59:40.620Z,21.00
2023-02-16T14:02:54.904Z,21.53
2023-02-16T14:06:32.809Z,22.60
2023-02-16T14:09:38.580Z,22.27
2023-02-16T14:12:41.936Z,23.95
2023-02-16T14:15:52.465Z,22.37
2023-02-16T14:19:00.967Z,21.27
2023-02-16T14:22:11.780Z,21.45
2023-02-16T14:25:23.792Z,21.52
2023-02-16T14:28:32.551Z,21.37
2023-02-16T14:31:54.285Z,21.30
2023-02-16T14:35:14.010Z,21.63
2023-02-16T14:38:24.910Z,23.38
2023-02-16T14:41:37.161Z,21.45
2023-02-16T14:44:55.836Z,21.20
2023-02-16T14:48:21.599Z,21.55
2023-02-16T14:51:39.614Z,16.97
2023-02-16T14:55:07.210Z,17.45
2023-02-16T14:58:13.105Z,16.58
2023-02-16T15:01:18.991Z,15.73
2023-02-16T15:04:33.390Z,14.50
2023-02-16T15:07:41.336Z,13.63
2023-02-16T15:10:47.218Z,13.95
2023-02-16T15:13:53.512Z,14.98
2023-02-16T15:16:58.284Z,12.40
2023-02-16T15:20:10.977Z,13.05
2023-02-16T15:23:19.204Z,13.77
2023-02-16T15:26:28.610Z,14.55
2023-02-16T15:29:34.066Z,13.77
2023-02-16T15:32:39.311Z,13.98
2023-02-16T15:35:47.033Z,13.27
2023-02-16T15:38:52.616Z,13.50
2023-02-16T15:42:09.716Z,13.57
2023-02-16T15:45:38.972Z,13.82
2023-02-16T15:48:42.604Z,13.50
2023-02-16T15:51:45.157Z,14.00
2023-02-16T15:54:50.347Z,13.73
2023-02-16T15:57:54.008Z,13.82
2023-02-16T16:00:56.950Z,14.63
2023-02-16T16:04:08.218Z,14.13
2023-02-16T16:07:17.520Z,14.70
2023-02-16T16:10:28.718Z,14.13
2023-02-16T16:13:32.472Z,14.57
2023-02-16T16:16:36.161Z,15.27
2023-02-16T16:19:39.134Z,14.93
2023-02-16T16:22:43.707Z,16.20
2023-02-16T16:25:48.441Z,15.77
2023-02-16T16:28:51.945Z,15.32
2023-02-16T16:31:54.477Z,15.65
2023-02-16T16:34:57.608Z,14.77
2023-02-16T16:38:00.891Z,15.77
2023-02-16T16:41:05.145Z,15.43
2023-02-16T16:44:12.493Z,15.77
2023-02-16T16:47:37.853Z,15.80
2023-02-16T16:50:40.717Z,15.50
2023-02-16T16:53:57.493Z,15.68
2023-02-16T16:57:00.058Z,16.53
2023-02-16T17:00:03.643Z,15.25
2023-02-16T17:03:08.792Z,15.07
2023-02-16T17:06:12.006Z,15.80
2023-02-16T17:09:15.961Z,16.37
2023-02-16T17:12:21.519Z,15.10
2023-02-16T17:15:44.688Z,17.27
2023-02-16T17:18:47.492Z,18.75
2023-02-16T17:21:50.059Z,17.45
2023-02-16T17:24:52.871Z,17.80
2023-02-16T17:27:55.225Z,18.97
2023-02-16T17:30:58.191Z,19.48
2023-02-16T17:34:00.848Z,19.67
2023-02-16T17:37:07.614Z,19.80
2023-02-16T17:40:15.288Z,19.73
2023-02-16T17:43:19.696Z,19.90
2023-02-16T17:46:23.093Z,20.10
2023-02-16T17:49:26.081Z,21.87
2023-02-16T17:52:28.494Z,21.40
2023-02-16T17:55:31.228Z,22.10
2023-02-16T17:58:33.594Z,21.10
2023-02-16T18:01:37.704Z,22.23
2023-02-16T18:04:43.284Z,22.45
2023-02-16T18:07:45.847Z,22.08
2023-02-16T18:10:51.737Z,22.77
2023-02-16T18:13:54.093Z,22.53
2023-02-16T18:16:59.905Z,21.98
2023-02-16T18:20:04.411Z,23.92
2023-02-16T18:23:08.317Z,24.77
2023-02-16T18:26:15.753Z,23.85
2023-02-16T18:29:19.215Z,22.57
2023-02-16T18:32:21.609Z,22.20
2023-02-16T18:35:24.413Z,21.37
2023-02-16T18:38:28.408Z,21.62
2023-02-16T18:41:32.670Z,22.75
2023-02-16T18:44:35.207Z,22.10
2023-02-16T18:47:38.078Z,22.40
2023-02-16T18:50:40.694Z,24.27
2023-02-16T18:53:44.086Z,20.58
2023-02-16T18:56:47.736Z,22.62
2023-02-16T18:59:50.856Z,24.70
2023-02-16T19:02:55.388Z,21.77
2023-02-16T19:05:58.263Z,23.70
2023-02-16T19:09:01.497Z,24.45
2023-02-16T19:12:04.457Z,23.02
2023-02-16T19:15:08.260Z,23.03
2023-02-16T19:18:11.045Z,24.05
2023-02-16T19:21:14.764Z,23.95
2023-02-16T19:24:17.618Z,24.63
2023-02-16T19:27:20.014Z,24.40
2023-02-16T19:30:24.345Z,24.70
2023-02-16T19:33:26.817Z,24.87
2023-02-16T19:36:32.080Z,25.88
2023-02-16T19:39:35.239Z,24.33
2023-02-16T19:42:39.102Z,21.40
2023-02-16T19:45:42.768Z,23.93
2023-02-16T19:48:48.679Z,25.45
2023-02-16T19:51:51.566Z,26.10
2023-02-16T19:54:54.906Z,24.80
2023-02-16T19:57:57.354Z,25.55
2023-02-16T20:01:10.306Z,24.40
2023-02-16T20:04:13.167Z,25.33
2023-02-16T20:07:15.598Z,25.37
2023-02-16T20:10:18.348Z,25.30
2023-02-16T20:13:21.538Z,27.45
2023-02-16T20:16:24.937Z,24.70
2023-02-16T20:19:27.671Z,25.23
2023-02-16T20:22:30.517Z,26.05
2023-02-16T20:25:33.118Z,24.25
2023-02-16T20:28:36.419Z,24.77
2023-02-16T20:31:40.650Z,25.17
2023-02-16T20:34:43.486Z,26.15
2023-02-16T20:37:46.015Z,25.48
2023-02-16T20:40:48.856Z,25.17
2023-02-16T20:43:51.379Z,23.55
2023-02-16T20:46:54.149Z,25.60
2023-02-16T20:49:56.706Z,25.52
2023-02-16T20:53:00.613Z,24.77
2023-02-16T20:56:08.681Z,26.20
2023-02-16T20:59:12.253Z,26.83
2023-02-16T21:02:14.873Z,26.47
2023-02-16T21:05:18.542Z,26.37
2023-02-16T21:08:21.413Z,28.30
2023-02-16T21:11:25.668Z,25.70
2023-02-16T21:14:28.205Z,25.50
2023-02-16T21:17:31.126Z,25.17
2023-02-16T21:20:33.782Z,25.60
2023-02-16T21:23:36.678Z,25.52
2023-02-16T21:26:39.240Z,25.88
2023-02-16T21:29:42.058Z,26.87
2023-02-16T21:32:44.503Z,25.53
2023-02-16T21:35:47.388Z,26.83
2023-02-16T21:38:51.205Z,25.58
2023-02-16T21:41:53.993Z,23.48
2023-02-16T21:45:12.563Z,24.58
2023-02-16T21:48:33.799Z,25.57
2023-02-16T21:51:38.676Z,27.50
2023-02-16T21:54:59.967Z,25.30
2023-02-16T21:58:06.396Z,24.55
2023-02-16T22:01:09.638Z,24.27
2023-02-16T22:04:14.981Z,25.00
2023-02-16T22:07:17.512Z,25.20
2023-02-16T22:10:20.307Z,23.42
2023-02-16T22:13:23.030Z,23.40
2023-02-16T22:16:28.094Z,19.08
2023-02-16T22:19:30.607Z,20.77
2023-02-16T22:22:33.453Z,21.08
2023-02-16T22:25:40.116Z,21.45
2023-02-16T22:28:42.812Z,20.98
2023-02-16T22:31:49.375Z,21.73
2023-02-16T22:34:53.854Z,20.10
2023-02-16T22:37:56.442Z,23.38
2023-02-16T22:40:59.235Z,22.55
2023-02-16T22:44:01.732Z,21.23
2023-02-16T22:47:04.771Z,22.10
2023-02-16T22:50:07.689Z,21.87
2023-02-16T22:53:10.416Z,19.23
2023-02-16T22:56:15.788Z,19.83
2023-02-16T22:59:22.418Z,21.20
2023-02-16T23:02:24.834Z,19.90
2023-02-16T23:05:30.192Z,21.03
2023-02-16T23:08:32.524Z,19.67
2023-02-16T23:11:36.446Z,19.90
2023-02-16T23:14:39.097Z,19.50
2023-02-16T23:17:41.750Z,21.00
2023-02-16T23:20:44.114Z,20.67
2023-02-16T23:23:48.059Z,21.35
2023-02-16T23:26:51.197Z,21.42
2023-02-16T23:29:53.975Z,22.02
2023-02-16T23:32:56.541Z,21.92
2023-02-16T23:35:59.433Z,21.73
2023-02-16T23:39:04.264Z,22.58
2023-02-16T23:42:06.995Z,24.83
2023-02-16T23:45:09.817Z,23.60
2023-02-16T23:48:12.456Z,24.48
2023-02-16T23:51:14.938Z,24.93
2023-02-16T23:54:17.709Z,24.37
2023-02-16T23:57:20.068Z,24.35
